sensor_id;sensor_type;location;lat;lon;timestamp;temperature;humidity
14093;DHT22;7123;49.468;10.992;2022-08-23T00:01:27;23.50;99.90
14093;DHT22;7123;49.468;10.992;2022-08-23T00:03:59;23.50;99.90
14093;DHT22;7123;49.468;10.992;2022-08-23T00:06:27;23.50;99.90
14093;DHT22;7123;49.468;10.992;2022-08-23T00:08:54;23.40;99.90
14093;DHT22;7123;49.468;10.992;2022-08-23T00:13:59;23.40;99.90
14093;DHT22;7123;49.468;10.992;2022-08-23T00:16:26;23.40;99.90
14093;DHT22;7123;49.468;10.992;2022-08-23T00:18:53;23.40;99.90
14093;DHT22;7123;49.468;10.992;2022-08-23T00:21:20;23.40;99.90
14093;DHT22;7123;49.468;10.992;2022-08-23T00:23:47;23.30;99.90
14093;DHT22;7123;49.468;10.992;2022-08-23T00:26:13;23.30;99.90
14093;DHT22;7123;49.468;10.992;2022-08-23T00:28:40;23.30;99.90
14093;DHT22;7123;49.468;10.992;2022-08-23T00:31:07;23.30;99.90
14093;DHT22;7123;49.468;10.992;2022-08-23T00:33:34;23.30;99.90
14093;DHT22;7123;49.468;10.992;2022-08-23T00:36:00;23.20;99.90
14093;DHT22;7123;49.468;10.992;2022-08-23T00:38:27;23.20;99.90
14093;DHT22;7123;49.468;10.992;2022-08-23T00:41:00;23.20;99.90
14093;DHT22;7123;49.468;10.992;2022-08-23T00:43:39;23.20;99.90
14093;DHT22;7123;49.468;10.992;2022-08-23T00:46:53;23.20;99.90
14093;DHT22;7123;49.468;10.992;2022-08-23T00:49:40;23.10;99.90
14093;DHT22;7123;49.468;10.992;2022-08-23T00:52:29;23.10;99.90
14093;DHT22;7123;49.468;10.992;2022-08-23T00:54:58;23.10;99.90
14093;DHT22;7123;49.468;10.992;2022-08-23T00:57:26;23.10;99.90
14093;DHT22;7123;49.468;10.992;2022-08-23T00:59:54;23.10;99.90
14093;DHT22;7123;49.468;10.992;2022-08-23T01:02:21;23.10;99.90
14093;DHT22;7123;49.468;10.992;2022-08-23T01:04:53;23.10;99.90
14093;DHT22;7123;49.468;10.992;2022-08-23T01:07:38;23.00;99.90
14093;DHT22;7123;49.468;10.992;2022-08-23T01:10:36;23.00;99.90
14093;DHT22;7123;49.468;10.992;2022-08-23T01:13:14;23.00;99.90
14093;DHT22;7123;49.468;10.992;2022-08-23T01:15:49;22.90;99.90
14093;DHT22;7123;49.468;10.992;2022-08-23T01:18:19;22.90;99.90
14093;DHT22;7123;49.468;10.992;2022-08-23T01:21:09;22.90;99.90
14093;DHT22;7123;49.468;10.992;2022-08-23T01:23:56;22.90;99.90
14093;DHT22;7123;49.468;10.992;2022-08-23T01:26:25;22.90;99.90
14093;DHT22;7123;49.468;10.992;2022-08-23T01:28:53;22.80;99.90
14093;DHT22;7123;49.468;10.992;2022-08-23T01:31:21;22.90;99.90
14093;DHT22;7123;49.468;10.992;2022-08-23T01:33:58;22.90;99.90
14093;DHT22;7123;49.468;10.992;2022-08-23T01:36:26;22.80;99.90
14093;DHT22;7123;49.468;10.992;2022-08-23T01:38:53;22.80;99.90
14093;DHT22;7123;49.468;10.992;2022-08-23T01:41:20;22.80;99.90
14093;DHT22;7123;49.468;10.992;2022-08-23T01:43:47;22.70;99.90
14093;DHT22;7123;49.468;10.992;2022-08-23T01:46:19;22.70;99.90
14093;DHT22;7123;49.468;10.992;2022-08-23T01:48:48;22.70;99.90
14093;DHT22;7123;49.468;10.992;2022-08-23T01:51:17;22.70;99.90
14093;DHT22;7123;49.468;10.992;2022-08-23T01:53:44;22.70;99.90
14093;DHT22;7123;49.468;10.992;2022-08-23T01:56:13;22.70;99.90
14093;DHT22;7123;49.468;10.992;2022-08-23T01:58:40;22.70;99.90
14093;DHT22;7123;49.468;10.992;2022-08-23T02:01:07;22.60;99.90
14093;DHT22;7123;49.468;10.992;2022-08-23T02:03:34;22.70;99.90
14093;DHT22;7123;49.468;10.992;2022-08-23T02:06:03;22.70;99.90
14093;DHT22;7123;49.468;10.992;2022-08-23T02:08:30;22.70;99.90
14093;DHT22;7123;49.468;10.992;2022-08-23T02:11:20;22.60;99.90
14093;DHT22;7123;49.468;10.992;2022-08-23T02:13:48;22.70;99.90
14093;DHT22;7123;49.468;10.992;2022-08-23T02:16:29;22.60;99.90
14093;DHT22;7123;49.468;10.992;2022-08-23T02:18:57;22.60;99.90
14093;DHT22;7123;49.468;10.992;2022-08-23T02:21:23;22.60;99.90
14093;DHT22;7123;49.468;10.992;2022-08-23T02:23:51;22.60;99.90
14093;DHT22;7123;49.468;10.992;2022-08-23T02:26:18;22.50;99.90
14093;DHT22;7123;49.468;10.992;2022-08-23T02:28:56;22.50;99.90
14093;DHT22;7123;49.468;10.992;2022-08-23T02:31:22;22.50;99.90
14093;DHT22;7123;49.468;10.992;2022-08-23T02:33:51;22.40;99.90
14093;DHT22;7123;49.468;10.992;2022-08-23T02:36:18;22.40;99.90
14093;DHT22;7123;49.468;10.992;2022-08-23T02:38:50;22.40;99.90
14093;DHT22;7123;49.468;10.992;2022-08-23T02:41:16;22.40;99.90
14093;DHT22;7123;49.468;10.992;2022-08-23T02:43:43;22.40;99.90
14093;DHT22;7123;49.468;10.992;2022-08-23T02:46:10;22.40;99.90
14093;DHT22;7123;49.468;10.992;2022-08-23T02:48:37;22.40;99.90
14093;DHT22;7123;49.468;10.992;2022-08-23T02:51:07;22.40;99.90
14093;DHT22;7123;49.468;10.992;2022-08-23T02:53:34;22.30;99.90
14093;DHT22;7123;49.468;10.992;2022-08-23T02:56:01;22.30;99.90
14093;DHT22;7123;49.468;10.992;2022-08-23T02:58:28;22.30;99.90
14093;DHT22;7123;49.468;10.992;2022-08-23T03:00:55;22.20;99.90
14093;DHT22;7123;49.468;10.992;2022-08-23T03:03:23;22.20;99.90
14093;DHT22;7123;49.468;10.992;2022-08-23T03:05:50;22.10;99.90
14093;DHT22;7123;49.468;10.992;2022-08-23T03:08:17;22.00;99.90
14093;DHT22;7123;49.468;10.992;2022-08-23T03:10:45;21.90;99.90
14093;DHT22;7123;49.468;10.992;2022-08-23T03:13:13;21.80;99.90
14093;DHT22;7123;49.468;10.992;2022-08-23T03:15:40;21.70;99.90
14093;DHT22;7123;49.468;10.992;2022-08-23T03:18:07;21.60;99.90
14093;DHT22;7123;49.468;10.992;2022-08-23T03:20:34;21.60;99.90
14093;DHT22;7123;49.468;10.992;2022-08-23T03:23:01;21.60;99.90
14093;DHT22;7123;49.468;10.992;2022-08-23T03:25:28;21.70;99.90
14093;DHT22;7123;49.468;10.992;2022-08-23T03:27:55;21.70;99.90
14093;DHT22;7123;49.468;10.992;2022-08-23T03:30:21;21.80;99.90
14093;DHT22;7123;49.468;10.992;2022-08-23T03:32:48;21.80;99.90
14093;DHT22;7123;49.468;10.992;2022-08-23T03:35:15;21.80;99.90
14093;DHT22;7123;49.468;10.992;2022-08-23T03:37:42;21.90;99.90
14093;DHT22;7123;49.468;10.992;2022-08-23T03:40:09;21.90;99.90
14093;DHT22;7123;49.468;10.992;2022-08-23T03:42:36;21.90;99.90
14093;DHT22;7123;49.468;10.992;2022-08-23T03:45:03;22.00;99.90
14093;DHT22;7123;49.468;10.992;2022-08-23T03:47:30;22.00;99.90
14093;DHT22;7123;49.468;10.992;2022-08-23T03:49:57;22.00;99.90
14093;DHT22;7123;49.468;10.992;2022-08-23T03:52:23;21.90;99.90
14093;DHT22;7123;49.468;10.992;2022-08-23T03:54:50;21.90;99.90
14093;DHT22;7123;49.468;10.992;2022-08-23T03:57:17;21.90;99.90
14093;DHT22;7123;49.468;10.992;2022-08-23T03:59:44;21.90;99.90
14093;DHT22;7123;49.468;10.992;2022-08-23T04:02:10;21.90;99.90
14093;DHT22;7123;49.468;10.992;2022-08-23T04:04:37;21.90;99.90
14093;DHT22;7123;49.468;10.992;2022-08-23T04:07:04;21.90;99.90
14093;DHT22;7123;49.468;10.992;2022-08-23T04:09:30;21.90;99.90
14093;DHT22;7123;49.468;10.992;2022-08-23T04:11:57;21.90;99.90
14093;DHT22;7123;49.468;10.992;2022-08-23T04:14:24;21.80;99.90
14093;DHT22;7123;49.468;10.992;2022-08-23T04:16:51;21.80;99.90
14093;DHT22;7123;49.468;10.992;2022-08-23T04:19:21;21.80;99.90
14093;DHT22;7123;49.468;10.992;2022-08-23T04:21:50;21.80;99.90
14093;DHT22;7123;49.468;10.992;2022-08-23T04:24:18;21.80;99.90
14093;DHT22;7123;49.468;10.992;2022-08-23T04:26:44;21.80;99.90
14093;DHT22;7123;49.468;10.992;2022-08-23T04:29:15;21.80;99.90
14093;DHT22;7123;49.468;10.992;2022-08-23T04:32:00;21.80;99.90
14093;DHT22;7123;49.468;10.992;2022-08-23T04:34:30;21.80;99.90
14093;DHT22;7123;49.468;10.992;2022-08-23T04:36:59;21.80;99.90
14093;DHT22;7123;49.468;10.992;2022-08-23T04:39:27;21.80;99.90
14093;DHT22;7123;49.468;10.992;2022-08-23T04:41:54;21.80;99.90
14093;DHT22;7123;49.468;10.992;2022-08-23T04:44:40;21.80;99.90
14093;DHT22;7123;49.468;10.992;2022-08-23T04:47:07;21.70;99.90
14093;DHT22;7123;49.468;10.992;2022-08-23T04:49:33;21.70;99.90
14093;DHT22;7123;49.468;10.992;2022-08-23T04:52:00;21.70;99.90
14093;DHT22;7123;49.468;10.992;2022-08-23T04:54:27;21.70;99.90
14093;DHT22;7123;49.468;10.992;2022-08-23T04:56:54;21.70;99.90
14093;DHT22;7123;49.468;10.992;2022-08-23T04:59:22;21.70;99.90
14093;DHT22;7123;49.468;10.992;2022-08-23T05:01:49;21.70;99.90
14093;DHT22;7123;49.468;10.992;2022-08-23T05:04:17;21.70;99.90
14093;DHT22;7123;49.468;10.992;2022-08-23T05:06:44;21.70;99.90
14093;DHT22;7123;49.468;10.992;2022-08-23T05:09:11;21.70;99.90
14093;DHT22;7123;49.468;10.992;2022-08-23T05:11:45;21.70;99.90
14093;DHT22;7123;49.468;10.992;2022-08-23T05:14:12;21.70;99.90
14093;DHT22;7123;49.468;10.992;2022-08-23T05:16:38;21.70;99.90
14093;DHT22;7123;49.468;10.992;2022-08-23T05:19:05;21.70;99.90
14093;DHT22;7123;49.468;10.992;2022-08-23T05:21:32;21.60;99.90
14093;DHT22;7123;49.468;10.992;2022-08-23T05:23:59;21.60;99.90
14093;DHT22;7123;49.468;10.992;2022-08-23T05:26:29;21.70;99.90
14093;DHT22;7123;49.468;10.992;2022-08-23T05:28:55;21.70;99.90
14093;DHT22;7123;49.468;10.992;2022-08-23T05:31:24;21.70;99.90
14093;DHT22;7123;49.468;10.992;2022-08-23T05:33:51;21.70;99.90
14093;DHT22;7123;49.468;10.992;2022-08-23T05:36:19;21.70;99.90
14093;DHT22;7123;49.468;10.992;2022-08-23T05:38:46;21.70;99.90
14093;DHT22;7123;49.468;10.992;2022-08-23T05:41:14;21.70;99.90
14093;DHT22;7123;49.468;10.992;2022-08-23T05:43:41;21.70;99.90
14093;DHT22;7123;49.468;10.992;2022-08-23T05:46:09;21.70;99.90
14093;DHT22;7123;49.468;10.992;2022-08-23T05:48:42;21.70;99.90
14093;DHT22;7123;49.468;10.992;2022-08-23T05:53:42;21.80;99.90
14093;DHT22;7123;49.468;10.992;2022-08-23T05:56:32;21.80;99.90
14093;DHT22;7123;49.468;10.992;2022-08-23T05:59:01;21.80;99.90
14093;DHT22;7123;49.468;10.992;2022-08-23T06:01:29;21.80;99.90
14093;DHT22;7123;49.468;10.992;2022-08-23T06:03:58;21.80;99.90
14093;DHT22;7123;49.468;10.992;2022-08-23T06:06:26;21.80;99.90
14093;DHT22;7123;49.468;10.992;2022-08-23T06:09:04;21.80;99.90
14093;DHT22;7123;49.468;10.992;2022-08-23T06:11:32;21.90;99.90
14093;DHT22;7123;49.468;10.992;2022-08-23T06:14:01;21.80;99.90
14093;DHT22;7123;49.468;10.992;2022-08-23T06:16:30;21.90;99.90
14093;DHT22;7123;49.468;10.992;2022-08-23T06:18:58;21.90;99.90
14093;DHT22;7123;49.468;10.992;2022-08-23T06:21:29;21.90;99.90
14093;DHT22;7123;49.468;10.992;2022-08-23T06:23:56;21.90;99.90
14093;DHT22;7123;49.468;10.992;2022-08-23T06:26:32;22.00;99.90
14093;DHT22;7123;49.468;10.992;2022-08-23T06:29:03;22.00;99.90
14093;DHT22;7123;49.468;10.992;2022-08-23T06:31:31;22.00;99.90
14093;DHT22;7123;49.468;10.992;2022-08-23T06:34:33;22.00;99.90
14093;DHT22;7123;49.468;10.992;2022-08-23T06:37:04;22.00;99.90
14093;DHT22;7123;49.468;10.992;2022-08-23T06:39:31;22.00;99.90
14093;DHT22;7123;49.468;10.992;2022-08-23T06:42:06;22.00;99.90
14093;DHT22;7123;49.468;10.992;2022-08-23T06:44:53;22.00;99.90
14093;DHT22;7123;49.468;10.992;2022-08-23T06:47:21;22.10;99.90
14093;DHT22;7123;49.468;10.992;2022-08-23T06:49:49;22.10;99.90
14093;DHT22;7123;49.468;10.992;2022-08-23T06:52:24;22.10;99.90
14093;DHT22;7123;49.468;10.992;2022-08-23T06:54:51;22.10;99.90
14093;DHT22;7123;49.468;10.992;2022-08-23T06:57:18;22.20;99.90
14093;DHT22;7123;49.468;10.992;2022-08-23T06:59:47;22.20;99.90
14093;DHT22;7123;49.468;10.992;2022-08-23T07:02:14;22.20;99.90
14093;DHT22;7123;49.468;10.992;2022-08-23T07:04:41;22.20;99.90
14093;DHT22;7123;49.468;10.992;2022-08-23T07:07:08;22.20;99.90
14093;DHT22;7123;49.468;10.992;2022-08-23T07:09:38;22.20;99.90
14093;DHT22;7123;49.468;10.992;2022-08-23T07:12:05;22.30;99.90
14093;DHT22;7123;49.468;10.992;2022-08-23T07:14:32;22.30;99.90
14093;DHT22;7123;49.468;10.992;2022-08-23T07:17:00;22.30;99.90
14093;DHT22;7123;49.468;10.992;2022-08-23T07:19:30;22.30;99.90
14093;DHT22;7123;49.468;10.992;2022-08-23T07:21:59;22.30;99.90
14093;DHT22;7123;49.468;10.992;2022-08-23T07:24:27;22.30;99.90
14093;DHT22;7123;49.468;10.992;2022-08-23T07:27:00;22.40;99.90
14093;DHT22;7123;49.468;10.992;2022-08-23T07:29:27;22.40;99.90
14093;DHT22;7123;49.468;10.992;2022-08-23T07:31:56;22.40;99.90
14093;DHT22;7123;49.468;10.992;2022-08-23T07:34:23;22.50;99.90
14093;DHT22;7123;49.468;10.992;2022-08-23T07:36:51;22.50;99.90
14093;DHT22;7123;49.468;10.992;2022-08-23T07:39:19;22.50;99.90
14093;DHT22;7123;49.468;10.992;2022-08-23T07:41:47;22.50;99.90
14093;DHT22;7123;49.468;10.992;2022-08-23T07:44:15;22.60;99.90
14093;DHT22;7123;49.468;10.992;2022-08-23T07:46:44;22.50;99.90
14093;DHT22;7123;49.468;10.992;2022-08-23T07:49:12;22.50;99.90
14093;DHT22;7123;49.468;10.992;2022-08-23T07:51:44;22.50;99.90
14093;DHT22;7123;49.468;10.992;2022-08-23T07:54:12;22.60;99.90
14093;DHT22;7123;49.468;10.992;2022-08-23T07:56:38;22.60;99.90
14093;DHT22;7123;49.468;10.992;2022-08-23T07:59:08;22.60;99.90
14093;DHT22;7123;49.468;10.992;2022-08-23T08:01:35;22.70;99.90
14093;DHT22;7123;49.468;10.992;2022-08-23T08:04:03;22.70;99.90
14093;DHT22;7123;49.468;10.992;2022-08-23T08:06:37;22.70;99.90
14093;DHT22;7123;49.468;10.992;2022-08-23T08:09:04;22.70;99.90
14093;DHT22;7123;49.468;10.992;2022-08-23T08:11:32;22.80;99.90
14093;DHT22;7123;49.468;10.992;2022-08-23T08:14:06;22.80;99.90
14093;DHT22;7123;49.468;10.992;2022-08-23T08:16:44;22.80;99.90
14093;DHT22;7123;49.468;10.992;2022-08-23T08:19:12;22.80;99.90
14093;DHT22;7123;49.468;10.992;2022-08-23T08:21:41;22.80;99.90
14093;DHT22;7123;49.468;10.992;2022-08-23T08:24:12;22.80;99.90
14093;DHT22;7123;49.468;10.992;2022-08-23T08:26:41;22.80;99.90
14093;DHT22;7123;49.468;10.992;2022-08-23T08:29:09;22.80;99.90
14093;DHT22;7123;49.468;10.992;2022-08-23T08:31:41;22.80;99.90
14093;DHT22;7123;49.468;10.992;2022-08-23T08:34:08;22.80;99.90
14093;DHT22;7123;49.468;10.992;2022-08-23T08:36:38;22.80;99.90
14093;DHT22;7123;49.468;10.992;2022-08-23T08:39:08;22.90;99.90
14093;DHT22;7123;49.468;10.992;2022-08-23T08:44:39;22.80;99.90
14093;DHT22;7123;49.468;10.992;2022-08-23T08:47:12;22.90;99.90
14093;DHT22;7123;49.468;10.992;2022-08-23T08:49:56;22.90;99.90
14093;DHT22;7123;49.468;10.992;2022-08-23T08:52:29;22.90;99.90
14093;DHT22;7123;49.468;10.992;2022-08-23T08:55:26;22.80;99.90
14093;DHT22;7123;49.468;10.992;2022-08-23T08:57:54;22.70;99.90
14093;DHT22;7123;49.468;10.992;2022-08-23T09:00:25;22.70;99.90
14093;DHT22;7123;49.468;10.992;2022-08-23T09:02:53;22.70;99.90
14093;DHT22;7123;49.468;10.992;2022-08-23T09:05:24;22.80;99.90
14093;DHT22;7123;49.468;10.992;2022-08-23T09:16:22;22.90;99.90
14093;DHT22;7123;49.468;10.992;2022-08-23T09:18:50;22.90;99.90
14093;DHT22;7123;49.468;10.992;2022-08-23T09:21:17;23.00;99.90
14093;DHT22;7123;49.468;10.992;2022-08-23T09:23:47;23.00;99.90
14093;DHT22;7123;49.468;10.992;2022-08-23T09:26:28;23.00;99.90
14093;DHT22;7123;49.468;10.992;2022-08-23T09:29:04;23.10;99.90
14093;DHT22;7123;49.468;10.992;2022-08-23T09:31:41;23.10;99.90
14093;DHT22;7123;49.468;10.992;2022-08-23T09:34:22;23.10;99.90
14093;DHT22;7123;49.468;10.992;2022-08-23T09:37:19;23.20;99.90
14093;DHT22;7123;49.468;10.992;2022-08-23T09:42:39;23.30;99.90
14093;DHT22;7123;49.468;10.992;2022-08-23T09:47:50;23.40;99.90
14093;DHT22;7123;49.468;10.992;2022-08-23T09:52:58;23.40;99.90
14093;DHT22;7123;49.468;10.992;2022-08-23T09:57:53;23.50;99.90
14093;DHT22;7123;49.468;10.992;2022-08-23T10:00:27;23.50;99.90
14093;DHT22;7123;49.468;10.992;2022-08-23T10:05:42;23.60;99.90
14093;DHT22;7123;49.468;10.992;2022-08-23T10:08:09;23.60;99.90
14093;DHT22;7123;49.468;10.992;2022-08-23T10:10:48;23.60;99.90
14093;DHT22;7123;49.468;10.992;2022-08-23T10:13:17;23.70;99.90
14093;DHT22;7123;49.468;10.992;2022-08-23T10:18:34;23.70;99.90
14093;DHT22;7123;49.468;10.992;2022-08-23T10:21:12;23.80;99.90
14093;DHT22;7123;49.468;10.992;2022-08-23T10:24:03;23.80;99.90
14093;DHT22;7123;49.468;10.992;2022-08-23T10:26:35;23.90;99.90
14093;DHT22;7123;49.468;10.992;2022-08-23T10:29:37;24.00;99.90
14093;DHT22;7123;49.468;10.992;2022-08-23T10:37:54;23.90;99.90
14093;DHT22;7123;49.468;10.992;2022-08-23T10:46:27;23.90;99.90
14093;DHT22;7123;49.468;10.992;2022-08-23T10:48:59;23.70;99.90
14093;DHT22;7123;49.468;10.992;2022-08-23T10:51:39;23.70;99.90
14093;DHT22;7123;49.468;10.992;2022-08-23T10:54:42;23.80;99.90
14093;DHT22;7123;49.468;10.992;2022-08-23T10:57:31;23.90;99.90
14093;DHT22;7123;49.468;10.992;2022-08-23T11:00:00;23.90;99.90
14093;DHT22;7123;49.468;10.992;2022-08-23T11:03:35;24.00;99.90
14093;DHT22;7123;49.468;10.992;2022-08-23T11:05:32;24.10;99.90
14093;DHT22;7123;49.468;10.992;2022-08-23T11:08:11;24.00;99.90
14093;DHT22;7123;49.468;10.992;2022-08-23T11:10:55;24.00;99.90
14093;DHT22;7123;49.468;10.992;2022-08-23T11:13:29;23.90;99.90
14093;DHT22;7123;49.468;10.992;2022-08-23T11:18:43;24.00;99.90
14093;DHT22;7123;49.468;10.992;2022-08-23T11:32:13;24.00;99.90
14093;DHT22;7123;49.468;10.992;2022-08-23T11:34:45;24.10;99.90
14093;DHT22;7123;49.468;10.992;2022-08-23T11:45:00;24.40;99.90
14093;DHT22;7123;49.468;10.992;2022-08-23T11:47:39;24.30;99.90
14093;DHT22;7123;49.468;10.992;2022-08-23T11:50:32;24.30;99.90
14093;DHT22;7123;49.468;10.992;2022-08-23T11:53:05;24.30;99.90
14093;DHT22;7123;49.468;10.992;2022-08-23T12:01:35;24.50;99.90
14093;DHT22;7123;49.468;10.992;2022-08-23T12:04:09;24.50;99.90
14093;DHT22;7123;49.468;10.992;2022-08-23T12:19:42;24.60;99.90
14093;DHT22;7123;49.468;10.992;2022-08-23T12:22:15;24.70;99.90
14093;DHT22;7123;49.468;10.992;2022-08-23T12:27:54;24.90;99.90
14093;DHT22;7123;49.468;10.992;2022-08-23T12:30:26;25.00;99.90
14093;DHT22;7123;49.468;10.992;2022-08-23T12:40:49;25.10;99.90
14093;DHT22;7123;49.468;10.992;2022-08-23T12:43:28;25.00;99.90
14093;DHT22;7123;49.468;10.992;2022-08-23T12:45:58;24.90;99.90
14093;DHT22;7123;49.468;10.992;2022-08-23T12:48:29;25.00;99.90
14093;DHT22;7123;49.468;10.992;2022-08-23T12:50:57;25.00;99.90
14093;DHT22;7123;49.468;10.992;2022-08-23T12:53:35;24.90;99.90
14093;DHT22;7123;49.468;10.992;2022-08-23T12:56:21;25.00;99.90
14093;DHT22;7123;49.468;10.992;2022-08-23T12:59:01;24.90;99.90
14093;DHT22;7123;49.468;10.992;2022-08-23T13:01:33;25.00;99.90
14093;DHT22;7123;49.468;10.992;2022-08-23T13:04:07;25.20;99.90
14093;DHT22;7123;49.468;10.992;2022-08-23T13:06:49;25.30;99.90
14093;DHT22;7123;49.468;10.992;2022-08-23T13:09:21;25.40;99.90
14093;DHT22;7123;49.468;10.992;2022-08-23T13:11:50;25.50;99.90
14093;DHT22;7123;49.468;10.992;2022-08-23T13:17:19;25.90;99.90
14093;DHT22;7123;49.468;10.992;2022-08-23T13:19:49;26.10;99.90
14093;DHT22;7123;49.468;10.992;2022-08-23T13:22:23;26.00;99.90
14093;DHT22;7123;49.468;10.992;2022-08-23T13:25:09;25.90;99.90
14093;DHT22;7123;49.468;10.992;2022-08-23T13:27:58;25.90;99.90
14093;DHT22;7123;49.468;10.992;2022-08-23T13:30:28;25.90;99.50
14093;DHT22;7123;49.468;10.992;2022-08-23T13:33:16;25.90;99.20
14093;DHT22;7123;49.468;10.992;2022-08-23T13:35:47;25.80;99.30
14093;DHT22;7123;49.468;10.992;2022-08-23T13:38:23;25.70;98.40
14093;DHT22;7123;49.468;10.992;2022-08-23T13:40:55;25.90;98.70
14093;DHT22;7123;49.468;10.992;2022-08-23T13:43:36;26.00;98.20
14093;DHT22;7123;49.468;10.992;2022-08-23T13:46:27;26.20;97.70
14093;DHT22;7123;49.468;10.992;2022-08-23T13:49:17;26.20;97.60
14093;DHT22;7123;49.468;10.992;2022-08-23T13:54:47;26.30;98.00
14093;DHT22;7123;49.468;10.992;2022-08-23T13:57:19;26.50;98.00
14093;DHT22;7123;49.468;10.992;2022-08-23T13:59:51;26.60;97.40
14093;DHT22;7123;49.468;10.992;2022-08-23T14:02:20;27.10;95.90
14093;DHT22;7123;49.468;10.992;2022-08-23T14:04:47;27.60;94.60
14093;DHT22;7123;49.468;10.992;2022-08-23T14:07:14;27.80;94.10
14093;DHT22;7123;49.468;10.992;2022-08-23T14:09:42;27.80;93.00
14093;DHT22;7123;49.468;10.992;2022-08-23T14:12:17;27.90;92.90
14093;DHT22;7123;49.468;10.992;2022-08-23T14:14:44;28.00;93.00
14093;DHT22;7123;49.468;10.992;2022-08-23T14:17:12;27.90;93.00
14093;DHT22;7123;49.468;10.992;2022-08-23T14:19:43;27.90;91.70
14093;DHT22;7123;49.468;10.992;2022-08-23T14:22:33;27.90;91.50
14093;DHT22;7123;49.468;10.992;2022-08-23T14:25:00;27.90;92.00
14093;DHT22;7123;49.468;10.992;2022-08-23T14:27:27;27.80;91.40
14093;DHT22;7123;49.468;10.992;2022-08-23T14:29:55;28.00;90.70
14093;DHT22;7123;49.468;10.992;2022-08-23T14:32:22;28.30;90.40
14093;DHT22;7123;49.468;10.992;2022-08-23T14:34:51;28.40;90.20
14093;DHT22;7123;49.468;10.992;2022-08-23T14:37:17;28.40;90.70
14093;DHT22;7123;49.468;10.992;2022-08-23T14:40:05;28.30;90.40
14093;DHT22;7123;49.468;10.992;2022-08-23T14:42:32;28.00;90.40
14093;DHT22;7123;49.468;10.992;2022-08-23T14:44:59;27.90;90.80
14093;DHT22;7123;49.468;10.992;2022-08-23T14:47:26;27.80;90.90
14093;DHT22;7123;49.468;10.992;2022-08-23T14:49:53;27.90;90.80
14093;DHT22;7123;49.468;10.992;2022-08-23T14:52:21;27.90;90.70
14093;DHT22;7123;49.468;10.992;2022-08-23T14:54:48;28.00;90.80
14093;DHT22;7123;49.468;10.992;2022-08-23T14:57:15;27.70;90.20
14093;DHT22;7123;49.468;10.992;2022-08-23T14:59:42;27.60;90.40
14093;DHT22;7123;49.468;10.992;2022-08-23T15:02:11;27.80;90.80
14093;DHT22;7123;49.468;10.992;2022-08-23T15:04:39;27.90;90.50
14093;DHT22;7123;49.468;10.992;2022-08-23T15:07:07;27.90;90.40
14093;DHT22;7123;49.468;10.992;2022-08-23T15:09:49;27.80;90.10
14093;DHT22;7123;49.468;10.992;2022-08-23T15:12:17;28.10;87.90
14093;DHT22;7123;49.468;10.992;2022-08-23T15:15:08;28.70;86.90
14093;DHT22;7123;49.468;10.992;2022-08-23T15:17:47;29.00;86.90
14093;DHT22;7123;49.468;10.992;2022-08-23T15:20:19;29.10;85.00
14093;DHT22;7123;49.468;10.992;2022-08-23T15:22:46;29.20;86.20
14093;DHT22;7123;49.468;10.992;2022-08-23T15:25:22;29.40;85.70
14093;DHT22;7123;49.468;10.992;2022-08-23T15:27:50;29.50;84.60
14093;DHT22;7123;49.468;10.992;2022-08-23T15:30:17;29.50;83.10
14093;DHT22;7123;49.468;10.992;2022-08-23T15:32:44;29.40;82.10
14093;DHT22;7123;49.468;10.992;2022-08-23T15:35:20;29.90;82.70
14093;DHT22;7123;49.468;10.992;2022-08-23T15:37:47;30.30;81.60
14093;DHT22;7123;49.468;10.992;2022-08-23T15:40:15;30.30;81.30
14093;DHT22;7123;49.468;10.992;2022-08-23T15:42:42;30.00;81.50
14093;DHT22;7123;49.468;10.992;2022-08-23T15:45:10;29.80;81.90
14093;DHT22;7123;49.468;10.992;2022-08-23T15:47:47;30.10;81.20
14093;DHT22;7123;49.468;10.992;2022-08-23T15:50:17;30.60;80.10
14093;DHT22;7123;49.468;10.992;2022-08-23T15:52:44;30.80;79.50
14093;DHT22;7123;49.468;10.992;2022-08-23T15:55:12;30.30;80.00
14093;DHT22;7123;49.468;10.992;2022-08-23T15:57:50;29.80;81.00
14093;DHT22;7123;49.468;10.992;2022-08-23T16:00:20;29.30;82.20
14093;DHT22;7123;49.468;10.992;2022-08-23T16:02:47;29.20;82.30
14093;DHT22;7123;49.468;10.992;2022-08-23T16:05:36;29.50;81.20
14093;DHT22;7123;49.468;10.992;2022-08-23T16:08:05;30.10;80.70
14093;DHT22;7123;49.468;10.992;2022-08-23T16:10:32;30.30;80.30
14093;DHT22;7123;49.468;10.992;2022-08-23T16:13:00;30.50;80.10
14093;DHT22;7123;49.468;10.992;2022-08-23T16:15:27;30.50;80.30
14093;DHT22;7123;49.468;10.992;2022-08-23T16:17:53;30.50;79.60
14093;DHT22;7123;49.468;10.992;2022-08-23T16:20:20;30.40;79.20
14093;DHT22;7123;49.468;10.992;2022-08-23T16:22:47;30.60;78.50
14093;DHT22;7123;49.468;10.992;2022-08-23T16:25:14;30.90;78.20
14093;DHT22;7123;49.468;10.992;2022-08-23T16:27:40;31.10;77.90
14093;DHT22;7123;49.468;10.992;2022-08-23T16:30:07;31.20;77.40
14093;DHT22;7123;49.468;10.992;2022-08-23T16:32:38;31.40;77.00
14093;DHT22;7123;49.468;10.992;2022-08-23T16:35:06;31.40;77.50
14093;DHT22;7123;49.468;10.992;2022-08-23T16:37:33;31.40;77.80
14093;DHT22;7123;49.468;10.992;2022-08-23T16:40:03;31.60;77.40
14093;DHT22;7123;49.468;10.992;2022-08-23T16:42:31;31.70;77.10
14093;DHT22;7123;49.468;10.992;2022-08-23T16:44:58;31.80;76.80
14093;DHT22;7123;49.468;10.992;2022-08-23T16:47:24;31.60;77.10
14093;DHT22;7123;49.468;10.992;2022-08-23T16:49:51;31.50;77.20
14093;DHT22;7123;49.468;10.992;2022-08-23T16:52:18;31.40;77.50
14093;DHT22;7123;49.468;10.992;2022-08-23T16:55:00;31.60;77.20
14093;DHT22;7123;49.468;10.992;2022-08-23T16:57:27;31.90;76.70
14093;DHT22;7123;49.468;10.992;2022-08-23T16:59:54;32.30;76.00
14093;DHT22;7123;49.468;10.992;2022-08-23T17:02:26;32.40;76.30
14093;DHT22;7123;49.468;10.992;2022-08-23T17:04:55;32.60;76.10
14093;DHT22;7123;49.468;10.992;2022-08-23T17:07:23;32.80;75.50
14093;DHT22;7123;49.468;10.992;2022-08-23T17:09:50;32.80;75.00
14093;DHT22;7123;49.468;10.992;2022-08-23T17:12:17;32.80;74.90
14093;DHT22;7123;49.468;10.992;2022-08-23T17:14:45;32.60;75.30
14093;DHT22;7123;49.468;10.992;2022-08-23T17:17:14;32.50;75.80
14093;DHT22;7123;49.468;10.992;2022-08-23T17:19:42;32.20;76.10
14093;DHT22;7123;49.468;10.992;2022-08-23T17:22:10;32.00;76.60
14093;DHT22;7123;49.468;10.992;2022-08-23T17:24:37;31.70;77.10
14093;DHT22;7123;49.468;10.992;2022-08-23T17:27:04;31.30;77.70
14093;DHT22;7123;49.468;10.992;2022-08-23T17:29:31;30.90;78.50
14093;DHT22;7123;49.468;10.992;2022-08-23T17:32:03;30.60;79.30
14093;DHT22;7123;49.468;10.992;2022-08-23T17:34:30;30.30;80.00
14093;DHT22;7123;49.468;10.992;2022-08-23T17:36:57;30.00;80.80